createdAt,value
2019-04-01T00:01:13.772Z,171.33
2019-04-01T00:06:18.830Z,105.03
2019-04-01T00:11:23.672Z,77.57
2019-04-01T00:16:28.533Z,51.40
2019-04-01T00:21:33.405Z,44.87
2019-04-01T00:26:38.204Z,36.23
2019-04-01T00:31:43.929Z,26.00
2019-04-01T00:36:48.716Z,29.10
2019-04-01T00:41:58.021Z,27.87
2019-04-01T00:47:02.879Z,45.83
2019-04-01T00:52:07.817Z,38.77
2019-04-01T00:57:12.625Z,27.67
2019-04-01T01:02:17.455Z,32.07
2019-04-01T01:07:22.210Z,36.83
2019-04-01T01:12:27.777Z,49.33
2019-04-01T01:17:32.641Z,43.87
2019-04-01T01:22:37.517Z,42.70
2019-04-01T01:27:42.385Z,35.17
2019-04-01T01:32:49.049Z,45.20
2019-04-01T01:37:53.881Z,44.30
2019-04-01T01:42:59.068Z,49.43
2019-04-01T01:48:04.321Z,33.07
2019-04-01T01:53:10.161Z,26.97
2019-04-01T01:58:15.805Z,100.13
2019-04-01T02:03:20.588Z,103.80
2019-04-01T02:08:25.445Z,29.03
2019-04-01T02:13:30.302Z,20.30
2019-04-01T02:18:35.167Z,22.30
2019-04-01T02:23:39.969Z,16.43
2019-04-01T02:28:44.812Z,21.53
2019-04-01T02:33:50.210Z,57.67
2019-04-01T02:38:55.068Z,156.53
2019-04-01T02:43:59.943Z,80.53
2019-04-01T02:49:04.801Z,33.50
2019-04-01T02:54:09.743Z,19.17
2019-04-01T02:59:14.600Z,38.27
2019-04-01T03:04:19.463Z,21.40
2019-04-01T03:09:24.357Z,55.50
2019-04-01T03:14:29.225Z,28.07
2019-04-01T03:19:34.084Z,45.47
2019-04-01T03:24:38.950Z,69.50
2019-04-01T03:29:43.814Z,109.80
2019-04-01T03:34:48.829Z,46.03
2019-04-01T03:39:53.698Z,33.47
2019-04-01T03:44:58.578Z,30.17
2019-04-01T03:50:03.503Z,23.60
2019-04-01T03:55:08.510Z,24.13
2019-04-01T04:00:13.650Z,18.17
2019-04-01T04:05:18.506Z,17.10
2019-04-01T04:10:23.355Z,27.17
2019-04-01T04:15:28.697Z,24.03
2019-04-01T04:20:33.544Z,16.83
2019-04-01T04:25:38.485Z,12.50
2019-04-01T04:30:43.361Z,20.00
2019-04-01T04:35:48.517Z,25.73
2019-04-01T04:40:53.369Z,16.00
2019-04-01T04:45:58.235Z,20.17
2019-04-01T04:51:03.101Z,35.60
2019-04-01T04:56:08.026Z,31.90
2019-04-01T05:01:13.495Z,37.20
2019-04-01T05:06:18.436Z,31.67
2019-04-01T05:11:23.388Z,35.93
2019-04-01T05:16:28.245Z,41.63
2019-04-01T05:21:33.708Z,32.77
2019-04-01T05:26:40.288Z,38.27
2019-04-01T05:31:46.680Z,47.73
2019-04-01T05:36:53.171Z,45.57
2019-04-01T05:41:58.051Z,89.67
2019-04-01T05:47:02.912Z,74.77
2019-04-01T05:52:08.584Z,53.70
2019-04-01T05:57:14.309Z,39.00
2019-04-01T06:02:19.170Z,63.73
2019-04-01T06:07:24.132Z,39.97
2019-04-01T06:12:30.093Z,45.57
2019-04-01T06:17:34.970Z,53.53
2019-04-01T06:22:39.821Z,60.80
2019-04-01T06:27:44.682Z,55.70
2019-04-01T06:32:49.549Z,65.53
2019-04-01T06:37:54.756Z,66.23
2019-04-01T06:42:59.688Z,78.93
2019-04-01T06:48:04.516Z,61.27
2019-04-01T06:53:09.489Z,39.90
2019-04-01T06:58:14.948Z,61.50
2019-04-01T07:03:19.806Z,42.70
2019-04-01T07:08:24.669Z,54.93
2019-04-01T07:13:29.628Z,30.73
2019-04-01T07:18:34.966Z,30.27
2019-04-01T07:23:39.935Z,24.97
2019-04-01T07:28:44.808Z,25.53
2019-04-01T07:33:49.677Z,24.67
2019-04-01T07:38:56.542Z,17.80
2019-04-01T07:44:02.972Z,16.43
2019-04-01T07:49:07.865Z,14.60
2019-04-01T07:54:12.688Z,17.23
2019-04-01T07:59:17.625Z,14.80
2019-04-01T08:04:22.501Z,20.93
2019-04-01T08:09:27.358Z,9.00
2019-04-01T08:14:32.215Z,31.97
2019-04-01T08:19:37.068Z,14.00
2019-04-01T08:24:42.178Z,12.47
2019-04-01T08:29:47.013Z,18.43
2019-04-01T08:34:51.886Z,10.87
2019-04-01T08:39:56.830Z,14.57
2019-04-01T08:45:01.695Z,12.03
2019-04-01T08:50:18.870Z,16.33
2019-04-01T08:55:23.708Z,9.43
2019-04-01T09:00:28.667Z,35.17
2019-04-01T09:05:33.458Z,31.77
2019-04-01T09:10:50.786Z,19.87
2019-04-01T09:15:57.152Z,5.07
2019-04-01T09:21:01.989Z,14.17
2019-04-01T09:26:06.837Z,5.77
2019-04-01T09:31:11.694Z,7.93
2019-04-01T09:36:16.544Z,3.93
2019-04-01T09:41:21.507Z,5.33
2019-04-01T09:46:26.356Z,1.13
2019-04-01T09:51:31.209Z,1.80
2019-04-01T09:56:36.056Z,4.80
2019-04-01T10:01:41.025Z,2.50
2019-04-01T10:06:45.887Z,5.63
2019-04-01T10:11:50.739Z,3.70
2019-04-01T10:16:55.592Z,7.00
2019-04-01T10:22:00.664Z,9.33
2019-04-01T10:27:05.516Z,9.87
2019-04-01T10:32:10.311Z,2.67
2019-04-01T10:37:15.165Z,2.93
2019-04-01T10:42:20.589Z,1.07
2019-04-01T10:47:25.486Z,2.30
2019-04-01T10:52:30.315Z,2.40
2019-04-01T10:57:35.204Z,2.60
2019-04-01T11:02:40.202Z,1.13
2019-04-01T11:07:45.109Z,1.10
2019-04-01T11:12:49.907Z,1.57
2019-04-01T11:17:54.748Z,2.90
2019-04-01T11:23:02.345Z,5.03
2019-04-01T11:28:06.018Z,2.57
2019-04-01T11:33:10.889Z,2.20
2019-04-01T11:38:15.824Z,6.77
2019-04-01T11:43:20.639Z,4.30
2019-04-01T11:48:25.536Z,3.43
2019-04-01T11:53:30.388Z,2.70
2019-04-01T11:58:35.228Z,6.47
2019-04-01T12:03:40.076Z,1.83
2019-04-01T12:08:44.907Z,11.43
2019-04-01T12:13:49.745Z,2.57
2019-04-01T12:18:54.577Z,2.17
2019-04-01T12:23:59.904Z,2.73
2019-04-01T12:29:04.762Z,3.87
2019-04-01T12:34:09.606Z,0.97
2019-04-01T12:39:14.430Z,3.60
2019-04-01T12:44:19.273Z,2.10
2019-04-01T12:49:24.103Z,3.50
2019-04-01T12:54:28.932Z,2.77
2019-04-01T12:59:33.768Z,8.10
2019-04-01T13:04:38.692Z,1.43
2019-04-01T13:09:43.600Z,2.03
2019-04-01T13:14:48.426Z,10.03
2019-04-01T13:19:53.270Z,1.33
2019-04-01T13:24:58.103Z,1.60
2019-04-01T13:30:05.989Z,5.10
2019-04-01T13:35:10.818Z,5.03
2019-04-01T13:40:19.420Z,5.10
2019-04-01T13:45:23.066Z,7.80
2019-04-01T13:50:27.847Z,9.87
2019-04-01T13:55:32.672Z,4.87
2019-04-01T14:00:37.518Z,1.63
2019-04-01T14:05:43.471Z,2.37
2019-04-01T14:10:50.010Z,8.10
2019-04-01T14:15:54.765Z,1.90
2019-04-01T14:20:59.602Z,5.13
2019-04-01T14:26:04.434Z,2.73
2019-04-01T14:31:09.349Z,12.93
2019-04-01T14:36:14.169Z,4.50
2019-04-01T14:41:19.010Z,8.70
2019-04-01T14:46:23.833Z,7.47
2019-04-01T14:51:28.770Z,1.90
2019-04-01T14:56:33.605Z,3.60
2019-04-01T15:01:39.004Z,2.47
2019-04-01T15:06:45.119Z,4.13
2019-04-01T15:11:50.263Z,3.07
2019-04-01T15:16:55.100Z,7.77
2019-04-01T15:21:59.942Z,6.83
2019-04-01T15:27:04.765Z,5.33
2019-04-01T15:32:09.889Z,4.97
2019-04-01T15:37:14.734Z,7.33
2019-04-01T15:42:19.578Z,4.10
2019-04-01T15:47:24.408Z,5.00
2019-04-01T15:52:29.232Z,8.83
2019-04-01T15:57:34.148Z,3.73
2019-04-01T16:02:38.983Z,3.17
2019-04-01T16:07:43.750Z,5.43
2019-04-01T16:12:48.522Z,6.33
2019-04-01T16:17:53.919Z,6.87
2019-04-01T16:22:59.105Z,8.77
2019-04-01T16:28:03.933Z,22.33
2019-04-01T16:33:09.234Z,9.97
2019-04-01T16:38:14.073Z,3.30
2019-04-01T16:43:18.916Z,5.63
2019-04-01T16:48:23.745Z,6.67
2019-04-01T16:53:28.574Z,8.40
2019-04-01T16:58:33.435Z,8.77
2019-04-01T17:03:38.807Z,5.63
2019-04-01T17:08:43.640Z,11.10
2019-04-01T17:13:48.406Z,11.30
2019-04-01T17:18:53.246Z,67.53
2019-04-01T17:23:59.262Z,77.00
2019-04-01T17:29:04.526Z,13.43
2019-04-01T17:34:09.447Z,17.33
2019-04-01T17:39:14.281Z,11.87
2019-04-01T17:44:19.096Z,6.57
2019-04-01T17:49:24.039Z,76.00
2019-04-01T17:54:28.901Z,355.77
2019-04-01T17:59:33.736Z,90.30
2019-04-01T18:04:38.663Z,18.03
2019-04-01T18:09:43.648Z,6.20
2019-04-01T18:14:48.624Z,5.27
2019-04-01T18:19:53.620Z,15.80
2019-04-01T18:24:58.443Z,8.80
2019-04-01T18:30:05.427Z,21.43
2019-04-01T18:35:12.311Z,13.10
2019-04-01T18:40:31.431Z,20.23
2019-04-01T18:45:23.978Z,31.87
2019-04-01T18:50:28.926Z,20.40
2019-04-01T18:55:34.153Z,27.23
2019-04-01T19:00:38.970Z,24.03
2019-04-01T19:05:46.898Z,19.03
2019-04-01T19:11:01.693Z,22.67
2019-04-01T19:15:57.709Z,35.47
2019-04-01T19:21:04.877Z,52.97
2019-04-01T19:26:10.221Z,34.23
2019-04-01T19:31:15.464Z,52.07
2019-04-01T19:36:20.318Z,102.30
2019-04-01T19:41:25.809Z,39.40
2019-04-01T19:46:30.641Z,42.70
2019-04-01T19:51:36.106Z,58.53
2019-04-01T19:56:41.435Z,28.63
2019-04-01T20:01:46.350Z,46.97
2019-04-01T20:06:51.194Z,43.90
2019-04-01T20:11:58.361Z,56.07
2019-04-01T20:17:02.589Z,37.97
2019-04-01T20:22:07.413Z,48.87
2019-04-01T20:27:12.241Z,68.97
2019-04-01T20:32:18.935Z,54.43
2019-04-01T20:37:23.710Z,71.23
2019-04-01T20:42:28.636Z,63.97
2019-04-01T20:47:33.483Z,97.37
2019-04-01T20:52:38.309Z,85.30
2019-04-01T20:57:43.138Z,77.20
2019-04-01T21:02:47.888Z,66.50
2019-04-01T21:07:52.717Z,64.00
2019-04-01T21:12:57.565Z,38.57
2019-04-01T21:18:02.410Z,38.03
2019-04-01T21:23:07.617Z,36.80
2019-04-01T21:28:12.418Z,38.17
2019-04-01T21:33:17.249Z,37.47
2019-04-01T21:38:22.094Z,45.03
2019-04-01T21:43:27.003Z,55.30
2019-04-01T21:48:31.844Z,61.13
2019-04-01T21:53:36.593Z,41.40
2019-04-01T21:58:41.429Z,41.33
2019-04-01T22:03:46.257Z,49.80
2019-04-01T22:08:51.088Z,43.20
2019-04-01T22:13:56.082Z,44.73
2019-04-01T22:19:01.372Z,50.93
2019-04-01T22:24:06.197Z,71.40
2019-04-01T22:29:11.046Z,64.27
2019-04-01T22:34:15.881Z,55.60
2019-04-01T22:39:27.065Z,57.23
2019-04-01T22:44:27.249Z,43.03
2019-04-01T22:49:32.077Z,35.53
2019-04-01T22:54:36.935Z,32.80
2019-04-01T22:59:41.765Z,37.37
2019-04-01T23:04:46.614Z,29.60
2019-04-01T23:09:51.442Z,28.97
2019-04-01T23:14:56.268Z,34.77
2019-04-01T23:20:01.118Z,26.33
2019-04-01T23:25:06.748Z,27.17
2019-04-01T23:30:12.659Z,29.83
2019-04-01T23:35:17.495Z,33.40
2019-04-01T23:40:22.350Z,38.70
2019-04-01T23:45:27.351Z,32.10
2019-04-01T23:50:32.173Z,30.57
2019-04-01T23:55:37.010Z,28.33
